Stonega, Virginia
Current Conditions -  °F | °C
As of 7:35 PM on Friday 21 Nov 2014 (Local Time) from KLNP Reporting Station
Clear Clear  
Wind Chill: 30°   Ceiling: Unl
Heat Index: 36°   Visibility: 10mi
Dew Point:   Wind: 7mph
Humidity: 33%   Direction: 150°SSE
Pressure: 30.39"   Gusts: NA
Location:  36.95°N, 82.79°W
Report Text: KLNP 220035Z AUTO 15006KT 10SM CLR 02/M13 A3039 RMK AO2
Loading
Personal Weather Stations






























Interactive Weather Map New forecast layout! Learn more

10-Day Weather Forecast

Advertisements
Track Severe Weather on mobile